KHUF/HUF METAR and TAF weather

Enter ICAO airport designator
Station Type Date Time Source
KHUF METAR 2021/09/20 05:53 UTC NOAA

KHUF 200553Z 15007KT 10SM FEW048 BKN070 OVC085 22/21 A3003 RMK AO2 RAB21E37 SLP163 P0000 60002 T02220206 10239 20211 58007


Station Type Date Time Source
KHUF Decoded METAR 2021/09/20 05:53 UTC NOAA

TERRE HAUTE INTERNATIONAL -HULMAN FLD, IN, United States (KHUF) 39-27N 087-19W 179M
Sep 20, 2021 - 01:53 AM EDT / 2021.09.20 0553 UTC
Wind: from the SSE (150 degrees) at 8 MPH (7 KT):0
Visibility: 10 mile(s):0
Sky conditions: overcast
Precipitation last hour: A trace
Temperature: 72.0 F (22.2 C)
Dew Point: 69.1 F (20.6 C)
Relative Humidity: 90%
Pressure (altimeter): 30.03 in. Hg (1016 hPa)
Pressure tendency: 0.02 inches (0.7 hPa) lower than three hours ago
ob: KHUF 200553Z 15007KT 10SM FEW048 BKN070 OVC085 22/21 A3003 RMK AO2 RAB21E37 SLP163 P0000 60002 T02220206 10239 20211 58007
cycle: 6

Station Type Date Time Source
KHUF TAF 2021/09/20 06:22 UTC NOAA

TAF KHUF 200520Z 2006/2106 16003KT 6SM -SHRA BR OVC070
FM200800 16008KT 6SM SHRA BR OVC025
FM201000 16009KT 6SM SHRA BR OVC010
FM201800 17010G19KT P6SM VCTS BKN015CB
FM202300 16010G18KT P6SM VCTS BKN020CB
FM210000 16010KT P6SM BKN020

Example: see airport list